Smyrna Airport
KMQY : now visible

Airfield :











YOU CAN JOIN US ON...

 
LOGIN :

Register | Disclaimer

   EN    FR    IT 

 









Legend :    VFR   Marginal VFR   IFR   Intensive IFR   Very Intensive IFR
Visi :
Ceiling :
>= 8 km
>= 3000ft
5 to 8 km
1000 to 3000 ft
1500m to 5 km
500 to 1000 ft
800 to 1500m
200 to 500 ft
< 800m
< 200 ft
Symbols :   Thunderstorms  Fog  Heavy snow  Heavy precipitations  Wind > 20 kt






- Airport Elevation : 543 ft


KMQY - Smyrna

CURRENT METAR :
  • 242019Z 03007KT 10SM SCT009 BKN019 OVC024 18/17 A2994 RMK AO2

EXPIRED METARs :
  • 241956Z 06005KT 9SM BKN017 BKN075 OVC090 18/17 A2994 RMK AO2 SLP144 T01830172
  • 241945Z 07005KT 9SM BKN017 BKN049 OVC080 18/17 A2994 RMK AO2
  • 241900Z 07003KT 10SM BKN008 18/17 A2997 RMK AO2
  • 241756Z 08005KT 10SM BKN008 OVC021 18/16 A2999 RMK AO2 SLP159 60000 T01780161 10183 20150 58013
  • 241742Z 07005KT 10SM BKN008 OVC021 18/17 A2998 RMK AO2

TAF KMQY
Valid from the 24 at 18:00 until the 25 at 18:00 UTC


241720Z 2418/2518 07004KT P6SM SCT006 OVC040
TEMPO 2418/2422 6SM -RA OVC006
FM242200 08008KT P6SM VCSH OVC006
FM250700 03005KT 5SM BR OVC003
FM251700 35005KT P6SM OVC015
KZME FIR / North America



MET'MAP, your aeronautical weather chart ! - Copyright ORBIFLY December 2007 - Disclaimer

ORBIFLY MET'MAP TEAM :

Programming & Development : Alexandra Zaïnal
Concept & original design : Baudouin d'Aumeries
Assistance for programming : Marc-Olivier Méhu
Technical & hardware support : Manuel Goepfert

Contact : metmap@orbifly.com




SOURCES & CREDITS :

   NOAA       Earth
Advisory